Time;durP1;ratioP1;P1;durP2;ratioP2;P2;SDS_P1;SDS_P2;PMS_P1;PMS_P2;Temp;Humidity;BMP_temperature;BMP_pressure;BME280_temperature;BME280_humidity;BME280_pressure;Samples;Min_cycle;Max_cycle;Signal;HPM_P1;HPM_P2
2022/06/27 00:00:34;;;;;;;5.67;5.13;;;;;;;;;;5054765;28;20196;-56
2022/06/27 00:03:00;;;;;;;6.87;5.97;;;;;;;;;;5055466;28;20208;-56
2022/06/27 00:05:26;;;;;;;6.43;5.83;;;;;;;;;;5055303;28;20701;-56
2022/06/27 00:07:53;;;;;;;6.37;5.77;;;;;;;;;;5054965;28;20655;-57
2022/06/27 00:10:19;;;;;;;7.33;6.77;;;;;;;;;;5053358;28;20251;-55
2022/06/27 00:12:45;;;;;;;6.73;6.13;;;;;;;;;;5055106;28;20567;-56
2022/06/27 00:15:11;;;;;;;8.87;7.63;;;;;;;;;;5055201;28;20195;-56
2022/06/27 00:17:38;;;;;;;7.27;6.57;;;;;;;;;;5054932;28;20244;-56
2022/06/27 00:20:04;;;;;;;7.10;6.40;;;;;;;;;;5055076;28;20206;-56
2022/06/27 00:22:30;;;;;;;6.80;6.20;;;;;;;;;;5054981;28;20196;-56
2022/06/27 00:24:57;;;;;;;6.82;6.32;;;;;;;;;;5053969;28;20402;-55
2022/06/27 00:27:23;;;;;;;6.43;5.70;;;;;;;;;;5054975;28;20712;-55
2022/06/27 00:29:49;;;;;;;6.57;5.83;;;;;;;;;;5054748;28;20230;-55
2022/06/27 00:32:16;;;;;;;6.57;5.53;;;;;;;;;;5054901;28;20200;-56
2022/06/27 00:34:43;;;;;;;6.37;5.77;;;;;;;;;;5054724;28;20207;-56
2022/06/27 00:37:09;;;;;;;5.30;4.80;;;;;;;;;;5054764;28;20202;-54
2022/06/27 00:39:35;;;;;;;6.40;5.73;;;;;;;;;;5054741;28;20191;-54
2022/06/27 00:42:02;;;;;;;5.63;5.13;;;;;;;;;;5054869;28;20737;-54
2022/06/27 00:44:32;;;;;;;6.20;5.60;;;;;;;;;;5054588;28;20657;-54
2022/06/27 00:46:58;;;;;;;6.13;5.63;;;;;;;;;;5054811;28;20196;-54
2022/06/27 00:49:24;;;;;;;5.00;4.60;;;;;;;;;;5054725;28;20223;-54
2022/06/27 00:51:50;;;;;;;5.70;5.17;;;;;;;;;;5054545;28;20223;-55
2022/06/27 00:54:16;;;;;;;5.37;4.97;;;;;;;;;;5054593;28;20228;-58
2022/06/27 00:56:42;;;;;;;5.73;5.20;;;;;;;;;;5053851;28;20211;-61
2022/06/27 00:59:10;;;;;;;6.30;4.90;;;;;;;;;;5054550;28;20251;-61
2022/06/27 01:01:36;;;;;;;5.10;4.70;;;;;;;;;;5054390;28;20206;-61
2022/06/27 01:04:02;;;;;;;5.13;4.73;;;;;;;;;;5054443;28;20263;-62
2022/06/27 01:06:28;;;;;;;5.47;4.87;;;;;;;;;;5054436;28;20206;-61
2022/06/27 01:08:54;;;;;;;4.83;4.43;;;;;;;;;;5054353;28;20211;-61
2022/06/27 01:11:21;;;;;;;5.50;5.00;;;;;;;;;;5054355;28;20240;-61
2022/06/27 01:13:47;;;;;;;6.20;5.70;;;;;;;;;;5054207;28;20190;-61
2022/06/27 01:16:14;;;;;;;6.50;5.80;;;;;;;;;;5054126;28;20282;-60
2022/06/27 01:18:40;;;;;;;10.33;5.10;;;;;;;;;;5054199;28;20586;-61
2022/06/27 01:21:07;;;;;;;6.27;5.33;;;;;;;;;;5054067;28;20206;-60
2022/06/27 01:23:35;;;;;;;7.10;5.03;;;;;;;;;;5053880;28;20205;-58
2022/06/27 01:26:01;;;;;;;5.53;4.60;;;;;;;;;;5054084;28;20229;-59
2022/06/27 01:28:27;;;;;;;5.73;5.23;;;;;;;;;;5053787;28;20202;-57
2022/06/27 01:30:53;;;;;;;6.23;5.37;;;;;;;;;;5053885;28;20237;-57
2022/06/27 01:33:19;;;;;;;6.50;5.53;;;;;;;;;;5053982;28;20203;-57
2022/06/27 01:35:45;;;;;;;6.00;5.40;;;;;;;;;;5053772;28;20205;-56
2022/06/27 01:38:11;;;;;;;5.90;5.40;;;;;;;;;;5054072;28;20573;-57
2022/06/27 01:40:39;;;;;;;5.53;5.03;;;;;;;;;;5053818;28;20660;-57
2022/06/27 01:43:05;;;;;;;5.30;4.90;;;;;;;;;;5053767;28;20202;-58
2022/06/27 01:45:32;;;;;;;6.10;5.50;;;;;;;;;;5053668;28;20731;-57
2022/06/27 01:47:58;;;;;;;5.33;4.87;;;;;;;;;;5053560;28;20204;-57
2022/06/27 01:50:25;;;;;;;5.57;4.60;;;;;;;;;;5053604;28;20231;-58
2022/06/27 01:52:52;;;;;;;5.90;5.27;;;;;;;;;;5053482;28;20195;-58
2022/06/27 01:55:19;;;;;;;6.10;5.60;;;;;;;;;;5053523;28;20193;-57
2022/06/27 01:57:47;;;;;;;6.43;5.77;;;;;;;;;;5053254;28;20198;-57
2022/06/27 02:00:14;;;;;;;6.77;5.90;;;;;;;;;;5053549;28;20202;-57
2022/06/27 02:02:40;;;;;;;6.43;5.83;;;;;;;;;;5053491;28;20202;-56
2022/06/27 02:05:07;;;;;;;6.10;5.57;;;;;;;;;;5053532;28;20195;-57
2022/06/27 02:07:33;;;;;;;6.27;5.67;;;;;;;;;;5052529;28;20202;-57
2022/06/27 02:09:59;;;;;;;6.23;5.70;;;;;;;;;;5053199;28;20229;-56
2022/06/27 02:12:28;;;;;;;5.70;5.20;;;;;;;;;;5053267;28;20205;-56
2022/06/27 02:14:55;;;;;;;6.40;5.80;;;;;;;;;;5053231;28;20676;-56
2022/06/27 02:17:22;;;;;;;6.80;6.20;;;;;;;;;;5053046;28;20250;-56
2022/06/27 02:19:48;;;;;;;8.17;5.97;;;;;;;;;;5052922;28;20273;-56
2022/06/27 02:22:14;;;;;;;7.40;6.80;;;;;;;;;;5052971;28;20195;-55
2022/06/27 02:24:40;;;;;;;7.57;6.87;;;;;;;;;;5052913;28;20206;-55
2022/06/27 02:27:09;;;;;;;7.70;6.70;;;;;;;;;;5052910;28;20314;-55
2022/06/27 02:29:35;;;;;;;7.60;6.90;;;;;;;;;;5052625;28;20751;-55
2022/06/27 02:32:02;;;;;;;7.23;6.63;;;;;;;;;;5052680;28;20679;-55
2022/06/27 02:34:28;;;;;;;6.80;6.30;;;;;;;;;;5052765;28;20672;-56
2022/06/27 02:36:55;;;;;;;7.93;7.23;;;;;;;;;;5052619;28;20210;-56
2022/06/27 02:39:23;;;;;;;7.10;6.50;;;;;;;;;;5052828;28;20199;-56
2022/06/27 02:41:51;;;;;;;8.50;6.77;;;;;;;;;;5052576;28;20197;-57
2022/06/27 02:44:17;;;;;;;8.33;7.60;;;;;;;;;;5052598;28;20206;-55
2022/06/27 02:46:43;;;;;;;7.87;6.93;;;;;;;;;;5052545;28;20217;-55
2022/06/27 02:49:11;;;;;;;7.10;6.50;;;;;;;;;;5052658;28;20194;-56
2022/06/27 02:51:41;;;;;;;8.40;7.60;;;;;;;;;;5052372;28;20679;-55
2022/06/27 02:54:08;;;;;;;7.27;6.67;;;;;;;;;;5052508;28;20194;-56
2022/06/27 02:56:36;;;;;;;7.40;6.70;;;;;;;;;;5052188;28;20196;-56
2022/06/27 02:59:03;;;;;;;8.17;7.47;;;;;;;;;;5052154;28;20274;-55
2022/06/27 03:01:31;;;;;;;8.33;7.53;;;;;;;;;;5052216;28;20195;-55
2022/06/27 03:03:57;;;;;;;6.53;5.93;;;;;;;;;;5052142;28;20206;-56
2022/06/27 03:06:25;;;;;;;8.30;7.50;;;;;;;;;;5052321;28;20302;-57
2022/06/27 03:08:51;;;;;;;8.23;7.50;;;;;;;;;;5052106;28;20746;-56
2022/06/27 03:11:18;;;;;;;11.80;8.97;;;;;;;;;;5052097;28;20336;-56
2022/06/27 03:13:45;;;;;;;9.07;8.13;;;;;;;;;;5052038;28;20196;-56
2022/06/27 03:16:12;;;;;;;8.23;7.43;;;;;;;;;;5052077;28;20335;-56
2022/06/27 03:18:38;;;;;;;8.23;7.63;;;;;;;;;;5051891;28;20259;-56
2022/06/27 03:21:04;;;;;;;7.60;7.00;;;;;;;;;;5051946;28;20251;-57
2022/06/27 03:23:32;;;;;;;8.73;8.07;;;;;;;;;;5051980;28;20670;-56
2022/06/27 03:25:58;;;;;;;8.97;8.03;;;;;;;;;;5051850;28;20218;-56
2022/06/27 03:28:24;;;;;;;8.20;7.47;;;;;;;;;;5051994;28;20202;-56
2022/06/27 03:30:50;;;;;;;8.53;7.73;;;;;;;;;;5051815;28;20221;-56
2022/06/27 03:33:16;;;;;;;8.00;7.40;;;;;;;;;;5051907;28;20725;-56
2022/06/27 03:35:43;;;;;;;8.33;7.50;;;;;;;;;;5052038;28;20196;-56
2022/06/27 03:38:09;;;;;;;7.53;6.83;;;;;;;;;;5052174;28;20204;-56
2022/06/27 03:40:37;;;;;;;7.83;7.13;;;;;;;;;;5051952;28;20225;-56
2022/06/27 03:43:03;;;;;;;8.93;8.13;;;;;;;;;;5051675;28;20791;-55
2022/06/27 03:45:29;;;;;;;9.30;8.33;;;;;;;;;;5051948;28;20215;-56
2022/06/27 03:47:56;;;;;;;8.30;7.50;;;;;;;;;;5051842;28;20530;-57
2022/06/27 03:50:22;;;;;;;9.13;8.33;;;;;;;;;;5051602;28;20696;-55
2022/06/27 03:52:49;;;;;;;9.40;8.50;;;;;;;;;;5051570;28;20251;-56
2022/06/27 03:55:15;;;;;;;9.77;8.87;;;;;;;;;;5051708;28;20212;-56
2022/06/27 03:57:47;;;;;;;9.17;8.27;;;;;;;;;;5051650;28;20635;-56
2022/06/27 04:00:14;;;;;;;9.50;8.60;;;;;;;;;;5051619;28;20203;-56
2022/06/27 04:02:40;;;;;;;8.87;8.00;;;;;;;;;;5051769;28;20245;-58
2022/06/27 04:05:07;;;;;;;9.23;8.33;;;;;;;;;;5051755;28;20198;-56
2022/06/27 04:07:33;;;;;;;10.00;8.20;;;;;;;;;;5051589;28;20236;-56
2022/06/27 04:09:58;;;;;;;9.57;8.07;;;;;;;;;;5051528;28;20600;-56
2022/06/27 04:12:24;;;;;;;9.10;8.20;;;;;;;;;;5051653;28;20197;-56
2022/06/27 04:14:52;;;;;;;10.10;9.00;;;;;;;;;;5051567;28;20185;-56
2022/06/27 04:17:18;;;;;;;9.97;9.07;;;;;;;;;;5051315;28;20705;-56
2022/06/27 04:19:44;;;;;;;8.70;7.90;;;;;;;;;;5051552;28;20238;-55
2022/06/27 04:22:10;;;;;;;10.90;9.50;;;;;;;;;;5051612;28;20559;-56
2022/06/27 04:24:37;;;;;;;10.27;9.27;;;;;;;;;;5051421;28;20203;-55
2022/06/27 04:27:03;;;;;;;10.07;9.03;;;;;;;;;;5051002;28;20655;-55
2022/06/27 04:29:30;;;;;;;11.00;10.00;;;;;;;;;;5050675;28;20198;-56
2022/06/27 04:31:58;;;;;;;11.00;10.00;;;;;;;;;;5052973;28;20228;-56
2022/06/27 04:34:24;;;;;;;11.87;10.87;;;;;;;;;;5054996;28;20603;-55
2022/06/27 04:36:50;;;;;;;11.40;10.17;;;;;;;;;;5054782;28;20281;-56
2022/06/27 04:39:17;;;;;;;11.90;10.60;;;;;;;;;;5054679;28;20559;-55
2022/06/27 04:41:43;;;;;;;11.23;10.23;;;;;;;;;;5054734;28;20200;-55
2022/06/27 04:44:09;;;;;;;11.73;10.73;;;;;;;;;;5054556;28;20208;-55
2022/06/27 04:46:35;;;;;;;11.13;10.20;;;;;;;;;;5054585;28;20201;-55
2022/06/27 04:49:02;;;;;;;11.93;10.87;;;;;;;;;;5054514;28;20300;-55
2022/06/27 04:51:29;;;;;;;10.73;9.83;;;;;;;;;;5054356;28;20602;-55
2022/06/27 04:53:56;;;;;;;10.73;9.83;;;;;;;;;;5054633;28;20589;-55
2022/06/27 04:56:22;;;;;;;11.60;9.30;;;;;;;;;;5054537;28;20206;-55
2022/06/27 04:58:48;;;;;;;10.93;9.90;;;;;;;;;;5054262;28;20202;-55
2022/06/27 05:01:14;;;;;;;11.30;10.13;;;;;;;;;;5054400;28;20202;-56
2022/06/27 05:03:40;;;;;;;10.83;9.90;;;;;;;;;;5054249;28;20234;-55
2022/06/27 05:06:08;;;;;;;12.73;11.53;;;;;;;;;;5053967;28;20730;-56
2022/06/27 05:08:33;;;;;;;14.43;13.17;;;;;;;;;;5054178;28;20205;-56
2022/06/27 05:10:59;;;;;;;14.57;13.10;;;;;;;;;;5053836;28;20249;-55
2022/06/27 05:13:25;;;;;;;13.90;12.70;;;;;;;;;;5054337;28;20251;-55
2022/06/27 05:15:51;;;;;;;14.77;13.37;;;;;;;;;;5053369;28;20241;-55
2022/06/27 05:18:18;;;;;;;13.73;12.30;;;;;;;;;;5054045;28;20602;-55
2022/06/27 05:20:44;;;;;;;13.57;12.27;;;;;;;;;;5053560;28;20193;-55
2022/06/27 05:23:11;;;;;;;11.80;10.77;;;;;;;;;;5053642;28;20217;-54
2022/06/27 05:25:37;;;;;;;11.47;10.00;;;;;;;;;;5053556;28;20639;-54
2022/06/27 05:28:03;;;;;;;11.40;10.30;;;;;;;;;;5053488;28;20230;-55
2022/06/27 05:30:30;;;;;;;15.30;10.53;;;;;;;;;;5053524;28;20229;-55
2022/06/27 05:32:56;;;;;;;10.60;9.60;;;;;;;;;;5053537;28;20232;-55
2022/06/27 05:35:22;;;;;;;10.73;9.80;;;;;;;;;;5053813;28;20205;-55
2022/06/27 05:37:48;;;;;;;12.57;11.40;;;;;;;;;;5053395;28;20202;-55
2022/06/27 05:40:17;;;;;;;12.70;11.40;;;;;;;;;;5053379;28;20565;-54
2022/06/27 05:42:44;;;;;;;12.67;11.47;;;;;;;;;;5052906;28;20210;-55
2022/06/27 05:45:10;;;;;;;13.47;12.03;;;;;;;;;;5053397;28;20206;-56
2022/06/27 05:47:36;;;;;;;13.20;12.00;;;;;;;;;;5053288;28;20198;-56
2022/06/27 05:50:04;;;;;;;13.90;12.43;;;;;;;;;;5052996;28;20218;-55
2022/06/27 05:52:30;;;;;;;13.77;12.47;;;;;;;;;;5053354;28;20198;-55
2022/06/27 05:54:58;;;;;;;15.97;14.40;;;;;;;;;;5053079;28;20201;-54
2022/06/27 05:57:25;;;;;;;17.80;15.97;;;;;;;;;;5053524;28;20205;-55
2022/06/27 05:59:53;;;;;;;16.33;14.63;;;;;;;;;;5053240;28;20198;-55
2022/06/27 06:02:21;;;;;;;13.50;12.23;;;;;;;;;;5052970;28;20556;-55
2022/06/27 06:04:47;;;;;;;13.10;11.67;;;;;;;;;;5053112;28;20970;-54
2022/06/27 06:07:14;;;;;;;12.63;11.33;;;;;;;;;;5052890;28;20280;-54
2022/06/27 06:09:41;;;;;;;11.57;10.40;;;;;;;;;;5053132;28;20202;-55
2022/06/27 06:12:09;;;;;;;11.80;10.57;;;;;;;;;;5053181;28;20604;-54
2022/06/27 06:14:37;;;;;;;13.33;10.77;;;;;;;;;;5052930;28;20213;-55
2022/06/27 06:17:03;;;;;;;11.53;10.50;;;;;;;;;;5052692;28;20312;-55
2022/06/27 06:19:29;;;;;;;11.17;10.07;;;;;;;;;;5052361;28;20748;-55
2022/06/27 06:21:56;;;;;;;10.87;9.93;;;;;;;;;;5052694;28;20664;-56
2022/06/27 06:24:24;;;;;;;12.07;10.77;;;;;;;;;;5053169;28;20196;-55
2022/06/27 06:26:52;;;;;;;14.73;10.97;;;;;;;;;;5052336;28;20230;-55
2022/06/27 06:29:18;;;;;;;14.03;11.00;;;;;;;;;;5052649;28;20193;-56
2022/06/27 06:31:46;;;;;;;13.07;11.73;;;;;;;;;;5052450;28;20314;-55
2022/06/27 06:34:12;;;;;;;13.23;12.00;;;;;;;;;;5052658;28;20222;-55
2022/06/27 06:36:39;;;;;;;12.87;11.60;;;;;;;;;;5051093;28;20198;-55
2022/06/27 06:39:05;;;;;;;12.33;11.10;;;;;;;;;;5052136;28;20271;-56
2022/06/27 06:41:32;;;;;;;12.10;10.90;;;;;;;;;;5051471;28;20238;-54
2022/06/27 06:44:02;;;;;;;12.93;11.67;;;;;;;;;;5052301;28;20226;-55
2022/06/27 06:46:30;;;;;;;10.40;9.40;;;;;;;;;;5052229;28;20665;-54
2022/06/27 06:49:04;;;;;;;11.17;10.07;;;;;;;;;;5052161;28;20199;-55
2022/06/27 06:51:31;;;;;;;12.87;11.13;;;;;;;;;;5052049;28;20282;-54
2022/06/27 06:53:57;;;;;;;11.70;10.47;;;;;;;;;;5051417;28;20200;-55
2022/06/27 06:56:23;;;;;;;11.20;10.03;;;;;;;;;;5052184;28;20233;-55
2022/06/27 06:58:49;;;;;;;12.67;10.10;;;;;;;;;;5051838;28;20676;-55
2022/06/27 07:01:15;;;;;;;10.73;9.70;;;;;;;;;;5051780;28;20199;-55
2022/06/27 07:03:42;;;;;;;12.23;10.23;;;;;;;;;;5051885;28;20613;-54
2022/06/27 07:06:12;;;;;;;11.93;10.67;;;;;;;;;;5051685;28;20695;-55
2022/06/27 07:08:39;;;;;;;9.37;8.53;;;;;;;;;;5051818;28;20677;-55
2022/06/27 07:11:07;;;;;;;10.23;9.23;;;;;;;;;;5051517;28;20263;-54
2022/06/27 07:13:33;;;;;;;9.63;8.73;;;;;;;;;;5051623;28;20717;-55
2022/06/27 07:15:59;;;;;;;10.17;9.17;;;;;;;;;;5051445;28;20278;-55
2022/06/27 07:18:25;;;;;;;10.30;9.30;;;;;;;;;;5051743;28;20294;-55
2022/06/27 07:20:52;;;;;;;12.40;10.73;;;;;;;;;;5051650;28;20195;-56
2022/06/27 07:23:20;;;;;;;10.93;9.93;;;;;;;;;;5051543;28;20595;-55
2022/06/27 07:25:47;;;;;;;10.33;9.37;;;;;;;;;;5051575;28;20534;-55
2022/06/27 07:28:13;;;;;;;11.33;10.23;;;;;;;;;;5051466;28;20197;-55
2022/06/27 07:30:40;;;;;;;11.97;10.77;;;;;;;;;;5051762;28;20231;-55
2022/06/27 07:33:07;;;;;;;11.47;10.47;;;;;;;;;;5051457;28;20217;-55
2022/06/27 07:35:33;;;;;;;9.43;8.63;;;;;;;;;;5051388;28;20690;-55
2022/06/27 07:38:00;;;;;;;11.47;10.33;;;;;;;;;;5051571;28;20528;-55
2022/06/27 07:40:27;;;;;;;10.83;9.83;;;;;;;;;;5051493;28;20196;-54
2022/06/27 07:42:54;;;;;;;11.80;10.70;;;;;;;;;;5051460;28;20207;-55
2022/06/27 07:45:21;;;;;;;11.40;10.40;;;;;;;;;;5051307;28;20199;-55
2022/06/27 07:47:47;;;;;;;12.80;11.33;;;;;;;;;;5051428;28;20242;-55
2022/06/27 07:53:19;;;;;;;10.57;9.57;;;;;;;;;;5051426;28;20274;-56
2022/06/27 07:55:49;;;;;;;10.47;9.03;;;;;;;;;;5051334;28;20196;-55
2022/06/27 07:58:16;;;;;;;12.20;9.87;;;;;;;;;;5051135;28;20266;-55
2022/06/27 08:00:43;;;;;;;14.03;9.83;;;;;;;;;;5051547;28;20206;-55
2022/06/27 08:05:54;;;;;;;12.87;9.27;;;;;;;;;;5051394;28;20202;-55
2022/06/27 08:08:23;;;;;;;11.40;8.80;;;;;;;;;;5055059;28;20204;-56
2022/06/27 08:10:50;;;;;;;11.83;8.60;;;;;;;;;;5055460;28;20269;-56
2022/06/27 08:13:16;;;;;;;9.67;8.00;;;;;;;;;;5055193;28;20208;-56
2022/06/27 08:15:42;;;;;;;10.70;8.60;;;;;;;;;;5055159;28;20288;-56
2022/06/27 08:18:08;;;;;;;13.87;9.80;;;;;;;;;;5055419;28;20195;-55
2022/06/27 08:20:35;;;;;;;14.30;9.33;;;;;;;;;;5053590;28;20198;-55
2022/06/27 08:23:01;;;;;;;12.33;8.77;;;;;;;;;;5055115;28;20203;-54
2022/06/27 08:25:28;;;;;;;10.73;8.70;;;;;;;;;;5055037;28;20645;-54
2022/06/27 08:27:56;;;;;;;10.93;9.20;;;;;;;;;;5055282;28;20211;-55
2022/06/27 08:30:26;;;;;;;10.47;9.40;;;;;;;;;;5054950;28;20239;-56
2022/06/27 08:32:55;;;;;;;11.23;9.97;;;;;;;;;;5054829;28;20289;-55
2022/06/27 08:35:21;;;;;;;12.27;10.30;;;;;;;;;;5054426;28;20657;-54
2022/06/27 08:37:49;;;;;;;14.90;10.10;;;;;;;;;;5054969;28;20698;-54
2022/06/27 08:40:17;;;;;;;9.53;8.27;;;;;;;;;;5054779;28;20643;-55
2022/06/27 08:42:43;;;;;;;10.63;9.47;;;;;;;;;;5054837;28;20208;-56
2022/06/27 08:45:12;;;;;;;14.47;10.87;;;;;;;;;;5054720;28;20207;-56
2022/06/27 08:47:38;;;;;;;13.13;10.93;;;;;;;;;;5054812;28;20248;-55
2022/06/27 08:50:06;;;;;;;12.00;10.70;;;;;;;;;;5054362;28;20694;-55
2022/06/27 08:52:34;;;;;;;10.93;9.83;;;;;;;;;;5054717;28;20329;-55
2022/06/27 08:55:01;;;;;;;12.53;10.10;;;;;;;;;;5054581;28;20198;-55
2022/06/27 08:57:27;;;;;;;14.50;10.17;;;;;;;;;;5054526;28;20226;-56
2022/06/27 08:59:53;;;;;;;12.23;10.97;;;;;;;;;;5054601;28;20196;-55
2022/06/27 09:02:25;;;;;;;11.50;10.30;;;;;;;;;;5054460;28;20206;-55
2022/06/27 09:05:02;;;;;;;12.87;11.50;;;;;;;;;;5054554;28;20200;-55
2022/06/27 09:07:44;;;;;;;12.30;9.70;;;;;;;;;;5054360;28;20233;-54
2022/06/27 09:10:23;;;;;;;10.90;9.90;;;;;;;;;;5054128;28;20219;-56
2022/06/27 09:12:54;;;;;;;10.77;9.67;;;;;;;;;;5054178;28;20237;-56
2022/06/27 09:15:20;;;;;;;12.87;11.00;;;;;;;;;;5053799;28;20741;-55
2022/06/27 09:17:59;;;;;;;12.20;11.00;;;;;;;;;;5053262;28;20227;-55
2022/06/27 09:20:25;;;;;;;12.80;11.03;;;;;;;;;;5054174;28;20254;-55
2022/06/27 09:22:52;;;;;;;15.50;11.20;;;;;;;;;;5054189;28;20196;-55
2022/06/27 09:25:23;;;;;;;13.87;12.40;;;;;;;;;;5053903;28;20203;-55
2022/06/27 09:27:53;;;;;;;19.67;13.03;;;;;;;;;;5053897;28;20283;-56
2022/06/27 09:30:22;;;;;;;13.47;11.87;;;;;;;;;;5053731;28;20314;-56
2022/06/27 09:32:51;;;;;;;16.33;11.90;;;;;;;;;;5053587;28;20207;-56
2022/06/27 09:35:24;;;;;;;15.87;13.33;;;;;;;;;;5054050;28;20205;-55
2022/06/27 09:37:54;;;;;;;14.50;12.70;;;;;;;;;;5053750;28;20689;-57
2022/06/27 09:40:22;;;;;;;16.47;14.30;;;;;;;;;;5053198;28;20274;-57
2022/06/27 09:42:48;;;;;;;14.83;12.17;;;;;;;;;;5053494;28;20210;-55
2022/06/27 09:45:15;;;;;;;13.67;12.27;;;;;;;;;;5053202;28;20623;-55
2022/06/27 09:47:42;;;;;;;16.17;12.33;;;;;;;;;;5053709;28;20200;-55
2022/06/27 09:50:10;;;;;;;14.33;12.10;;;;;;;;;;5053358;28;20281;-55
2022/06/27 09:52:36;;;;;;;15.73;12.40;;;;;;;;;;5053106;28;20307;-56
2022/06/27 09:55:07;;;;;;;14.33;12.90;;;;;;;;;;5053383;28;20199;-56
2022/06/27 09:57:34;;;;;;;17.07;13.10;;;;;;;;;;5053341;28;20207;-55
2022/06/27 10:00:00;;;;;;;14.13;11.63;;;;;;;;;;5053648;28;20210;-55
2022/06/27 10:02:28;;;;;;;13.83;11.77;;;;;;;;;;5053446;28;20204;-55
2022/06/27 10:04:54;;;;;;;16.30;12.53;;;;;;;;;;5053314;28;20224;-55
2022/06/27 10:07:22;;;;;;;15.10;12.27;;;;;;;;;;5053221;28;20280;-55
2022/06/27 10:09:51;;;;;;;14.53;11.83;;;;;;;;;;5053220;28;20285;-55
2022/06/27 10:12:22;;;;;;;16.00;12.60;;;;;;;;;;5053049;28;20197;-55
2022/06/27 10:15:17;;;;;;;13.93;11.97;;;;;;;;;;5053359;28;20197;-55
2022/06/27 10:17:51;;;;;;;13.97;12.37;;;;;;;;;;5053216;28;20200;-56
2022/06/27 10:20:21;;;;;;;12.97;11.67;;;;;;;;;;5052940;28;20191;-56
2022/06/27 10:23:09;;;;;;;14.83;11.77;;;;;;;;;;5053049;28;20242;-56
2022/06/27 10:25:35;;;;;;;17.77;12.07;;;;;;;;;;5052709;28;20638;-56
2022/06/27 10:28:16;;;;;;;13.97;11.40;;;;;;;;;;5052808;28;20200;-56
2022/06/27 10:30:44;;;;;;;15.67;13.13;;;;;;;;;;5052413;28;20228;-61
2022/06/27 10:33:25;;;;;;;14.07;12.27;;;;;;;;;;5052860;28;20326;-57
2022/06/27 10:36:16;;;;;;;12.87;10.87;;;;;;;;;;5043893;28;20203;-56
2022/06/27 10:38:48;;;;;;;15.03;12.43;;;;;;;;;;5052938;28;20207;-56
2022/06/27 10:41:33;;;;;;;14.57;12.13;;;;;;;;;;5052500;28;20295;-56
2022/06/27 10:43:59;;;;;;;13.23;11.83;;;;;;;;;;5052665;28;20188;-57
2022/06/27 10:46:52;;;;;;;16.43;13.00;;;;;;;;;;5052397;28;20200;-57
2022/06/27 10:49:25;;;;;;;13.20;11.57;;;;;;;;;;5052301;28;20291;-57
2022/06/27 10:51:51;;;;;;;14.40;12.90;;;;;;;;;;5052380;28;20567;-56
2022/06/27 10:54:19;;;;;;;16.70;14.97;;;;;;;;;;5052476;28;20192;-56
2022/06/27 10:56:46;;;;;;;16.13;14.57;;;;;;;;;;5052367;28;20723;-57
2022/06/27 10:59:31;;;;;;;18.43;15.93;;;;;;;;;;5052293;28;20685;-55
2022/06/27 11:02:09;;;;;;;17.73;16.00;;;;;;;;;;5053052;28;20180;-55
2022/06/27 11:04:36;;;;;;;18.23;16.47;;;;;;;;;;5052189;28;20298;-54
2022/06/27 11:07:03;;;;;;;21.53;19.43;;;;;;;;;;5052196;28;20204;-55
2022/06/27 11:09:35;;;;;;;21.30;19.33;;;;;;;;;;5052101;28;20204;-55
2022/06/27 11:12:01;;;;;;;22.80;20.40;;;;;;;;;;5052148;28;20306;-55
2022/06/27 11:14:27;;;;;;;22.90;20.40;;;;;;;;;;5052073;28;20292;-56
2022/06/27 11:16:53;;;;;;;23.57;21.17;;;;;;;;;;5051866;28;20236;-54
2022/06/27 11:22:20;;;;;;;22.17;20.07;;;;;;;;;;5043482;28;20262;-55
2022/06/27 11:24:48;;;;;;;21.87;19.77;;;;;;;;;;5051941;28;20230;-57
2022/06/27 11:27:15;;;;;;;21.10;19.10;;;;;;;;;;5051752;28;20228;-55
2022/06/27 11:32:27;;;;;;;22.07;19.97;;;;;;;;;;5052009;28;20281;-55
2022/06/27 11:34:53;;;;;;;24.77;22.03;;;;;;;;;;5051977;28;20200;-55
2022/06/27 11:37:22;;;;;;;23.57;21.27;;;;;;;;;;5051899;28;20196;-55
2022/06/27 11:39:58;;;;;;;22.67;20.43;;;;;;;;;;5052075;28;20540;-54
2022/06/27 11:42:28;;;;;;;24.13;21.93;;;;;;;;;;5056023;28;20196;-54
2022/06/27 11:45:04;;;;;;;22.73;20.53;;;;;;;;;;5055967;28;20199;-55
2022/06/27 11:47:30;;;;;;;24.20;21.87;;;;;;;;;;5055438;28;20560;-55
2022/06/27 11:50:00;;;;;;;26.77;24.00;;;;;;;;;;5055954;28;20199;-54
2022/06/27 11:52:34;;;;;;;24.30;22.07;;;;;;;;;;5055699;28;20249;-56
2022/06/27 11:55:07;;;;;;;26.57;23.83;;;;;;;;;;5055655;28;20208;-56
2022/06/27 11:57:33;;;;;;;25.27;22.67;;;;;;;;;;5055640;28;20226;-55
2022/06/27 12:00:00;;;;;;;25.37;22.87;;;;;;;;;;5055738;28;20196;-55
2022/06/27 12:02:27;;;;;;;24.90;22.40;;;;;;;;;;5055627;28;20196;-54
2022/06/27 12:05:02;;;;;;;24.10;21.77;;;;;;;;;;5055438;28;20561;-55
2022/06/27 12:07:28;;;;;;;23.80;21.60;;;;;;;;;;5055502;28;20250;-55
2022/06/27 12:09:54;;;;;;;22.43;20.37;;;;;;;;;;5055591;28;20204;-54
2022/06/27 12:12:23;;;;;;;22.57;20.47;;;;;;;;;;5055314;28;20255;-54
2022/06/27 12:14:50;;;;;;;21.37;19.23;;;;;;;;;;5055311;28;20295;-55
2022/06/27 12:17:16;;;;;;;19.47;17.53;;;;;;;;;;5055126;28;20247;-56
2022/06/27 12:19:42;;;;;;;18.43;16.73;;;;;;;;;;5055348;28;20212;-55
2022/06/27 12:22:09;;;;;;;18.57;16.80;;;;;;;;;;5055342;28;20199;-57
2022/06/27 12:24:35;;;;;;;16.40;14.80;;;;;;;;;;5055042;28;20662;-55
2022/06/27 12:27:01;;;;;;;14.90;13.60;;;;;;;;;;5054943;28;20228;-55
2022/06/27 12:29:28;;;;;;;14.53;13.23;;;;;;;;;;5055013;28;20663;-55
2022/06/27 12:31:54;;;;;;;13.60;12.27;;;;;;;;;;5054886;28;20312;-56
2022/06/27 12:34:20;;;;;;;15.17;13.87;;;;;;;;;;5055154;28;20200;-56
2022/06/27 12:36:47;;;;;;;14.03;12.63;;;;;;;;;;5054887;28;20200;-55
2022/06/27 12:39:13;;;;;;;13.77;12.47;;;;;;;;;;5054884;28;20740;-55
2022/06/27 12:41:39;;;;;;;14.40;13.13;;;;;;;;;;5054765;28;20659;-54
2022/06/27 12:44:05;;;;;;;12.00;11.00;;;;;;;;;;5055075;28;20285;-55
2022/06/27 12:46:33;;;;;;;13.03;11.83;;;;;;;;;;5054498;28;20200;-54
2022/06/27 12:48:59;;;;;;;12.57;11.47;;;;;;;;;;5054852;28;20217;-55
2022/06/27 12:51:25;;;;;;;12.80;11.63;;;;;;;;;;5054236;28;20229;-55
2022/06/27 12:53:52;;;;;;;12.67;11.53;;;;;;;;;;5054241;28;20276;-55
2022/06/27 12:56:19;;;;;;;12.10;10.40;;;;;;;;;;5054816;28;20276;-56
2022/06/27 12:58:45;;;;;;;11.63;10.53;;;;;;;;;;5054529;28;20211;-56
2022/06/27 13:01:11;;;;;;;10.93;10.03;;;;;;;;;;5054666;28;20182;-55
2022/06/27 13:03:38;;;;;;;11.60;10.60;;;;;;;;;;5054439;28;20287;-55
2022/06/27 13:06:05;;;;;;;13.47;12.17;;;;;;;;;;5054536;28;20220;-54
2022/06/27 13:08:31;;;;;;;11.13;10.03;;;;;;;;;;5054262;28;20744;-55
2022/06/27 13:10:57;;;;;;;12.13;11.07;;;;;;;;;;5054425;28;20229;-55
2022/06/27 13:13:23;;;;;;;12.80;11.60;;;;;;;;;;5054249;28;20204;-55
2022/06/27 13:15:49;;;;;;;13.23;12.03;;;;;;;;;;5053991;28;20239;-54
2022/06/27 13:18:16;;;;;;;13.57;12.47;;;;;;;;;;5054063;28;20270;-54
2022/06/27 13:20:43;;;;;;;13.30;12.20;;;;;;;;;;5054118;28;20192;-54
2022/06/27 13:23:09;;;;;;;15.60;14.20;;;;;;;;;;5054263;28;20216;-55
2022/06/27 13:25:35;;;;;;;15.10;13.63;;;;;;;;;;5053798;28;20220;-55
2022/06/27 13:28:01;;;;;;;14.63;13.43;;;;;;;;;;5054002;28;20200;-54
2022/06/27 13:30:27;;;;;;;14.50;13.20;;;;;;;;;;5053966;28;20223;-55
2022/06/27 13:32:53;;;;;;;15.57;14.17;;;;;;;;;;5053970;28;20204;-55
2022/06/27 13:35:20;;;;;;;16.07;14.67;;;;;;;;;;5054025;28;20203;-55
2022/06/27 13:37:47;;;;;;;17.30;15.77;;;;;;;;;;5053887;28;20190;-55
2022/06/27 13:40:13;;;;;;;18.07;16.43;;;;;;;;;;5053766;28;20197;-55
2022/06/27 13:42:39;;;;;;;18.53;16.87;;;;;;;;;;5053688;28;20604;-55
2022/06/27 13:45:06;;;;;;;16.10;14.80;;;;;;;;;;5053808;28;20196;-55
2022/06/27 13:47:32;;;;;;;15.43;14.10;;;;;;;;;;5053394;28;20197;-57
2022/06/27 13:49:58;;;;;;;19.03;17.13;;;;;;;;;;5053632;28;20266;-57
2022/06/27 13:52:25;;;;;;;18.23;16.57;;;;;;;;;;5053524;28;20234;-57
2022/06/27 13:54:52;;;;;;;17.93;16.40;;;;;;;;;;5053524;28;20212;-57
2022/06/27 13:57:18;;;;;;;18.20;16.57;;;;;;;;;;5053309;28;20220;-57
2022/06/27 13:59:44;;;;;;;18.00;16.20;;;;;;;;;;5053337;28;20211;-57
2022/06/27 14:02:11;;;;;;;17.83;16.23;;;;;;;;;;5053581;28;20196;-59
2022/06/27 14:04:37;;;;;;;16.90;15.40;;;;;;;;;;5052971;28;20188;-57
2022/06/27 14:09:48;;;;;;;18.80;17.10;;;;;;;;;;5053142;28;20191;-54
2022/06/27 14:12:15;;;;;;;19.97;18.10;;;;;;;;;;5052905;28;20698;-54
2022/06/27 14:14:41;;;;;;;20.07;18.37;;;;;;;;;;5053305;28;20203;-52
2022/06/27 14:17:08;;;;;;;22.20;20.20;;;;;;;;;;5053194;28;20314;-55
2022/06/27 14:19:34;;;;;;;21.73;19.73;;;;;;;;;;5052968;28;20204;-55
2022/06/27 14:22:03;;;;;;;20.57;18.80;;;;;;;;;;5053095;28;20200;-55
2022/06/27 14:24:29;;;;;;;20.03;18.33;;;;;;;;;;5052973;28;20200;-56
2022/06/27 14:26:56;;;;;;;22.80;20.80;;;;;;;;;;5052761;28;20711;-55
2022/06/27 14:29:24;;;;;;;23.90;21.43;;;;;;;;;;5052490;28;20210;-52
2022/06/27 14:31:50;;;;;;;24.40;22.13;;;;;;;;;;5052366;28;20338;-51
2022/06/27 14:34:17;;;;;;;23.57;20.83;;;;;;;;;;5052411;28;20200;-54
2022/06/27 14:36:44;;;;;;;23.53;21.33;;;;;;;;;;5052503;28;20622;-55
2022/06/27 14:39:10;;;;;;;24.47;22.13;;;;;;;;;;5052568;28;20299;-53
2022/06/27 14:41:40;;;;;;;22.60;20.60;;;;;;;;;;5052320;28;20202;-53